sensor_id;sensor_type;location;lat;lon;timestamp;pressure;altitude;pressure_sealevel;temperature;humidity
3598;BME280;1813;52.016;8.714;2023-11-18T00:02:18;-16261.94;;;-139.71;84.99
3598;BME280;1813;52.016;8.714;2023-11-18T00:04:52;-16261.94;;;-139.71;84.99
3598;BME280;1813;52.016;8.714;2023-11-18T00:07:25;-16261.94;;;-139.71;84.86
3598;BME280;1813;52.016;8.714;2023-11-18T00:09:59;-16261.94;;;-139.71;84.59
3598;BME280;1813;52.016;8.714;2023-11-18T00:12:33;-16261.94;;;-139.71;84.37
3598;BME280;1813;52.016;8.714;2023-11-18T00:15:08;-16261.94;;;-139.71;84.16
3598;BME280;1813;52.016;8.714;2023-11-18T00:17:44;-16261.94;;;-139.71;83.81
3598;BME280;1813;52.016;8.714;2023-11-18T00:20:18;-16261.94;;;-139.71;83.87
3598;BME280;1813;52.016;8.714;2023-11-18T00:22:54;-16261.94;;;-139.71;83.72
3598;BME280;1813;52.016;8.714;2023-11-18T00:25:29;-16261.94;;;-139.71;83.66
3598;BME280;1813;52.016;8.714;2023-11-18T00:28:04;-16261.94;;;-139.71;83.50
3598;BME280;1813;52.016;8.714;2023-11-18T00:30:37;-16261.94;;;-139.71;83.56
3598;BME280;1813;52.016;8.714;2023-11-18T00:33:13;-16261.94;;;-139.71;83.39
3598;BME280;1813;52.016;8.714;2023-11-18T00:35:47;-16261.94;;;-139.71;83.58
3598;BME280;1813;52.016;8.714;2023-11-18T00:38:20;-16261.94;;;-139.71;83.30
3598;BME280;1813;52.016;8.714;2023-11-18T00:40:54;-16261.94;;;-139.71;83.17
3598;BME280;1813;52.016;8.714;2023-11-18T00:43:27;-16261.94;;;-139.71;82.90
3598;BME280;1813;52.016;8.714;2023-11-18T00:46:02;-16261.94;;;-139.71;82.87
3598;BME280;1813;52.016;8.714;2023-11-18T00:48:39;-16261.94;;;-139.71;82.74
3598;BME280;1813;52.016;8.714;2023-11-18T00:51:12;-16261.94;;;-139.71;82.42
3598;BME280;1813;52.016;8.714;2023-11-18T00:53:45;-16261.94;;;-139.71;82.10
3598;BME280;1813;52.016;8.714;2023-11-18T00:56:20;-16261.94;;;-139.71;81.87
3598;BME280;1813;52.016;8.714;2023-11-18T00:58:53;-16261.94;;;-139.71;82.03
3598;BME280;1813;52.016;8.714;2023-11-18T01:01:27;-16261.94;;;-139.71;82.49
3598;BME280;1813;52.016;8.714;2023-11-18T01:04:05;-16261.94;;;-139.71;83.13
3598;BME280;1813;52.016;8.714;2023-11-18T01:06:42;-16261.94;;;-139.71;83.72
3598;BME280;1813;52.016;8.714;2023-11-18T01:09:18;-16261.94;;;-139.71;84.24
3598;BME280;1813;52.016;8.714;2023-11-18T01:11:52;-16261.94;;;-139.71;84.75
3598;BME280;1813;52.016;8.714;2023-11-18T01:14:25;-16261.94;;;-139.71;85.46
3598;BME280;1813;52.016;8.714;2023-11-18T01:17:00;-16261.94;;;-139.71;85.92
3598;BME280;1813;52.016;8.714;2023-11-18T01:19:36;-16261.94;;;-139.71;86.42
3598;BME280;1813;52.016;8.714;2023-11-18T01:22:10;-16261.94;;;-139.71;86.89
3598;BME280;1813;52.016;8.714;2023-11-18T01:24:44;-16261.94;;;-139.71;87.16
3598;BME280;1813;52.016;8.714;2023-11-18T01:27:19;-16261.94;;;-139.71;87.34
3598;BME280;1813;52.016;8.714;2023-11-18T01:29:53;-16261.94;;;-139.71;87.65
3598;BME280;1813;52.016;8.714;2023-11-18T01:32:28;-16261.94;;;-139.71;87.71
3598;BME280;1813;52.016;8.714;2023-11-18T01:35:04;-16261.94;;;-139.71;87.82
3598;BME280;1813;52.016;8.714;2023-11-18T01:37:39;-16261.94;;;-139.71;87.90
3598;BME280;1813;52.016;8.714;2023-11-18T01:40:12;-16261.94;;;-139.71;88.05
3598;BME280;1813;52.016;8.714;2023-11-18T01:42:46;-16261.94;;;-139.71;88.04
3598;BME280;1813;52.016;8.714;2023-11-18T01:45:19;-16261.94;;;-139.71;88.17
3598;BME280;1813;52.016;8.714;2023-11-18T01:47:53;-16261.94;;;-139.71;88.20
3598;BME280;1813;52.016;8.714;2023-11-18T01:50:29;-16261.94;;;-139.71;88.12
3598;BME280;1813;52.016;8.714;2023-11-18T01:53:03;-16261.94;;;-139.71;88.10
3598;BME280;1813;52.016;8.714;2023-11-18T01:55:38;-16261.94;;;-139.71;88.08
3598;BME280;1813;52.016;8.714;2023-11-18T01:58:11;-16261.94;;;-139.71;88.01
3598;BME280;1813;52.016;8.714;2023-11-18T02:00:51;-16261.94;;;-139.71;87.85
3598;BME280;1813;52.016;8.714;2023-11-18T02:03:24;-16261.94;;;-139.71;88.00
3598;BME280;1813;52.016;8.714;2023-11-18T02:06:02;-16261.94;;;-139.71;87.88
3598;BME280;1813;52.016;8.714;2023-11-18T02:08:37;-16261.94;;;-139.71;87.67
3598;BME280;1813;52.016;8.714;2023-11-18T02:11:17;-16261.94;;;-139.71;87.39
3598;BME280;1813;52.016;8.714;2023-11-18T02:13:57;-16261.94;;;-139.71;87.25
3598;BME280;1813;52.016;8.714;2023-11-18T02:16:33;-16261.94;;;-139.71;87.10
3598;BME280;1813;52.016;8.714;2023-11-18T02:19:16;-16261.94;;;-139.71;86.84
3598;BME280;1813;52.016;8.714;2023-11-18T02:21:55;-16261.94;;;-139.71;86.67
3598;BME280;1813;52.016;8.714;2023-11-18T02:24:31;-16261.94;;;-139.71;86.44
3598;BME280;1813;52.016;8.714;2023-11-18T02:27:09;-16261.94;;;-139.71;86.38
3598;BME280;1813;52.016;8.714;2023-11-18T02:29:45;-16261.94;;;-139.71;86.40
3598;BME280;1813;52.016;8.714;2023-11-18T02:32:25;-16261.94;;;-139.71;86.39
3598;BME280;1813;52.016;8.714;2023-11-18T02:35:05;-16261.94;;;-139.71;86.34
3598;BME280;1813;52.016;8.714;2023-11-18T02:37:46;-16261.94;;;-139.71;86.21
3598;BME280;1813;52.016;8.714;2023-11-18T02:40:26;-16261.94;;;-139.71;85.94
3598;BME280;1813;52.016;8.714;2023-11-18T02:43:04;-16261.94;;;-139.71;85.22
3598;BME280;1813;52.016;8.714;2023-11-18T02:45:40;-16261.94;;;-139.71;84.50
3598;BME280;1813;52.016;8.714;2023-11-18T02:48:15;-16261.94;;;-139.71;84.03
3598;BME280;1813;52.016;8.714;2023-11-18T02:50:48;-16261.94;;;-139.71;83.46
3598;BME280;1813;52.016;8.714;2023-11-18T02:53:22;-16261.94;;;-139.71;83.01
3598;BME280;1813;52.016;8.714;2023-11-18T02:55:56;-16261.94;;;-139.71;82.83
3598;BME280;1813;52.016;8.714;2023-11-18T02:58:35;-16261.94;;;-139.71;82.44
3598;BME280;1813;52.016;8.714;2023-11-18T03:01:09;-16261.94;;;-139.71;82.33
3598;BME280;1813;52.016;8.714;2023-11-18T03:03:43;-16261.94;;;-139.71;81.75
3598;BME280;1813;52.016;8.714;2023-11-18T03:06:17;-16261.94;;;-139.71;81.67
3598;BME280;1813;52.016;8.714;2023-11-18T03:08:51;-16261.94;;;-139.71;81.87
3598;BME280;1813;52.016;8.714;2023-11-18T03:11:25;-16261.94;;;-139.71;81.78
3598;BME280;1813;52.016;8.714;2023-11-18T03:14:03;-16261.94;;;-139.71;81.59
3598;BME280;1813;52.016;8.714;2023-11-18T03:16:40;-16261.94;;;-139.71;81.39
3598;BME280;1813;52.016;8.714;2023-11-18T03:19:13;-16261.94;;;-139.71;81.39
3598;BME280;1813;52.016;8.714;2023-11-18T03:21:50;-16261.94;;;-139.71;81.46
3598;BME280;1813;52.016;8.714;2023-11-18T03:24:24;-16261.94;;;-139.71;81.40
3598;BME280;1813;52.016;8.714;2023-11-18T03:26:58;-16261.94;;;-139.71;81.31
3598;BME280;1813;52.016;8.714;2023-11-18T03:29:35;-16261.94;;;-139.71;81.28
3598;BME280;1813;52.016;8.714;2023-11-18T03:32:10;-16261.94;;;-139.71;81.28
3598;BME280;1813;52.016;8.714;2023-11-18T03:34:43;-16261.94;;;-139.71;80.99
3598;BME280;1813;52.016;8.714;2023-11-18T03:37:17;-16261.94;;;-139.71;80.95
3598;BME280;1813;52.016;8.714;2023-11-18T03:39:53;-16261.94;;;-139.71;81.09
3598;BME280;1813;52.016;8.714;2023-11-18T03:42:27;-16261.94;;;-139.71;81.27
3598;BME280;1813;52.016;8.714;2023-11-18T03:45:03;-16261.94;;;-139.71;81.24
3598;BME280;1813;52.016;8.714;2023-11-18T03:47:37;-16261.94;;;-139.71;81.35
3598;BME280;1813;52.016;8.714;2023-11-18T03:50:11;-16261.94;;;-139.71;81.22
3598;BME280;1813;52.016;8.714;2023-11-18T03:52:45;-16261.94;;;-139.71;81.23
3598;BME280;1813;52.016;8.714;2023-11-18T03:55:18;-16261.94;;;-139.71;80.98
3598;BME280;1813;52.016;8.714;2023-11-18T03:57:52;-16261.94;;;-139.71;80.65
3598;BME280;1813;52.016;8.714;2023-11-18T04:00:28;-16261.94;;;-139.71;80.36
3598;BME280;1813;52.016;8.714;2023-11-18T04:03:03;-16261.94;;;-139.71;79.86
3598;BME280;1813;52.016;8.714;2023-11-18T04:05:38;-16261.94;;;-139.71;79.42
3598;BME280;1813;52.016;8.714;2023-11-18T04:08:12;-16261.94;;;-139.71;79.42
3598;BME280;1813;52.016;8.714;2023-11-18T04:10:45;-16261.94;;;-139.71;79.83
3598;BME280;1813;52.016;8.714;2023-11-18T04:13:18;-16261.94;;;-139.71;80.25
3598;BME280;1813;52.016;8.714;2023-11-18T04:15:54;-16261.94;;;-139.71;80.17
3598;BME280;1813;52.016;8.714;2023-11-18T04:18:28;-16261.94;;;-139.71;80.47
3598;BME280;1813;52.016;8.714;2023-11-18T04:21:02;-16261.94;;;-139.71;81.42
3598;BME280;1813;52.016;8.714;2023-11-18T04:23:38;-16261.94;;;-139.71;81.67
3598;BME280;1813;52.016;8.714;2023-11-18T04:26:12;-16261.94;;;-139.71;81.89
3598;BME280;1813;52.016;8.714;2023-11-18T04:28:46;-16261.94;;;-139.71;82.18
3598;BME280;1813;52.016;8.714;2023-11-18T04:31:22;-16261.94;;;-139.71;82.22
3598;BME280;1813;52.016;8.714;2023-11-18T04:33:56;-16261.94;;;-139.71;82.34
3598;BME280;1813;52.016;8.714;2023-11-18T04:36:29;-16261.94;;;-139.71;82.61
3598;BME280;1813;52.016;8.714;2023-11-18T04:39:03;-16261.94;;;-139.71;82.71
3598;BME280;1813;52.016;8.714;2023-11-18T04:41:36;-16261.94;;;-139.71;82.92
3598;BME280;1813;52.016;8.714;2023-11-18T04:44:11;-16261.94;;;-139.71;83.10
3598;BME280;1813;52.016;8.714;2023-11-18T04:46:49;-16261.94;;;-139.71;83.42
3598;BME280;1813;52.016;8.714;2023-11-18T04:49:23;-16261.94;;;-139.71;83.69
3598;BME280;1813;52.016;8.714;2023-11-18T04:51:57;-16261.94;;;-139.71;84.03
3598;BME280;1813;52.016;8.714;2023-11-18T04:54:30;-16261.94;;;-139.71;84.02
3598;BME280;1813;52.016;8.714;2023-11-18T04:57:04;-16261.94;;;-139.71;84.10
3598;BME280;1813;52.016;8.714;2023-11-18T04:59:39;-16261.94;;;-139.71;84.13
3598;BME280;1813;52.016;8.714;2023-11-18T05:02:15;-16261.94;;;-139.71;84.11
3598;BME280;1813;52.016;8.714;2023-11-18T05:04:49;-16261.94;;;-139.71;84.09
3598;BME280;1813;52.016;8.714;2023-11-18T05:07:22;-16261.94;;;-139.71;84.31
3598;BME280;1813;52.016;8.714;2023-11-18T05:09:55;-16261.94;;;-139.71;84.34
3598;BME280;1813;52.016;8.714;2023-11-18T05:12:29;-16261.94;;;-139.71;84.43
3598;BME280;1813;52.016;8.714;2023-11-18T05:15:03;-16261.94;;;-139.71;84.62
3598;BME280;1813;52.016;8.714;2023-11-18T05:17:40;-16261.94;;;-139.71;84.86
3598;BME280;1813;52.016;8.714;2023-11-18T05:20:14;-16261.94;;;-139.71;85.07
3598;BME280;1813;52.016;8.714;2023-11-18T05:22:48;-16261.94;;;-139.71;85.19
3598;BME280;1813;52.016;8.714;2023-11-18T05:25:21;-16261.94;;;-139.71;85.30
3598;BME280;1813;52.016;8.714;2023-11-18T05:27:55;-16261.94;;;-139.71;85.49
3598;BME280;1813;52.016;8.714;2023-11-18T05:30:28;-16261.94;;;-139.71;85.48
3598;BME280;1813;52.016;8.714;2023-11-18T05:33:05;-16261.94;;;-139.71;85.24
3598;BME280;1813;52.016;8.714;2023-11-18T05:35:39;-16261.94;;;-139.71;85.11
3598;BME280;1813;52.016;8.714;2023-11-18T05:38:19;-16261.94;;;-139.71;85.07
3598;BME280;1813;52.016;8.714;2023-11-18T05:40:54;-16261.94;;;-139.71;85.02
3598;BME280;1813;52.016;8.714;2023-11-18T05:43:32;-16261.94;;;-139.71;84.99
3598;BME280;1813;52.016;8.714;2023-11-18T05:46:11;-16261.94;;;-139.71;84.89
3598;BME280;1813;52.016;8.714;2023-11-18T05:48:53;-16261.94;;;-139.71;84.54
3598;BME280;1813;52.016;8.714;2023-11-18T05:51:27;-16261.94;;;-139.71;84.56
3598;BME280;1813;52.016;8.714;2023-11-18T05:54:02;-16261.94;;;-139.71;84.47
3598;BME280;1813;52.016;8.714;2023-11-18T05:56:36;-16261.94;;;-139.71;84.54
3598;BME280;1813;52.016;8.714;2023-11-18T05:59:09;-16261.94;;;-139.71;84.49
3598;BME280;1813;52.016;8.714;2023-11-18T06:01:44;-16261.94;;;-139.71;84.49
3598;BME280;1813;52.016;8.714;2023-11-18T06:04:20;-16261.94;;;-139.71;84.34
3598;BME280;1813;52.016;8.714;2023-11-18T06:06:54;-16261.94;;;-139.71;84.36
3598;BME280;1813;52.016;8.714;2023-11-18T06:09:27;-16261.94;;;-139.71;84.32
3598;BME280;1813;52.016;8.714;2023-11-18T06:12:01;-16261.94;;;-139.71;84.24
3598;BME280;1813;52.016;8.714;2023-11-18T06:14:39;-16261.94;;;-139.71;84.19
3598;BME280;1813;52.016;8.714;2023-11-18T06:17:15;-16261.94;;;-139.71;83.99
3598;BME280;1813;52.016;8.714;2023-11-18T06:19:52;-16261.94;;;-139.71;83.65
3598;BME280;1813;52.016;8.714;2023-11-18T06:22:25;-16261.94;;;-139.71;83.51
3598;BME280;1813;52.016;8.714;2023-11-18T06:24:58;-16261.94;;;-139.71;83.54
3598;BME280;1813;52.016;8.714;2023-11-18T06:27:33;-16261.94;;;-139.71;83.59
3598;BME280;1813;52.016;8.714;2023-11-18T06:30:07;-16261.94;;;-139.71;83.76
3598;BME280;1813;52.016;8.714;2023-11-18T06:32:42;-16261.94;;;-139.71;83.78
3598;BME280;1813;52.016;8.714;2023-11-18T06:35:20;-16261.94;;;-139.71;83.78
3598;BME280;1813;52.016;8.714;2023-11-18T06:37:55;-16261.94;;;-139.71;83.89
3598;BME280;1813;52.016;8.714;2023-11-18T06:40:29;-16261.94;;;-139.71;84.08
3598;BME280;1813;52.016;8.714;2023-11-18T06:43:03;-16261.94;;;-139.71;84.22
3598;BME280;1813;52.016;8.714;2023-11-18T06:45:42;-16261.94;;;-139.71;84.04
3598;BME280;1813;52.016;8.714;2023-11-18T06:48:17;-16261.94;;;-139.71;84.04
3598;BME280;1813;52.016;8.714;2023-11-18T06:50:55;-16261.94;;;-139.71;84.22
3598;BME280;1813;52.016;8.714;2023-11-18T06:53:29;-16261.94;;;-139.71;84.49
3598;BME280;1813;52.016;8.714;2023-11-18T06:56:03;-16261.94;;;-139.71;84.46
3598;BME280;1813;52.016;8.714;2023-11-18T06:58:38;-16261.94;;;-139.71;84.64
3598;BME280;1813;52.016;8.714;2023-11-18T07:01:13;-16261.94;;;-139.71;84.47
3598;BME280;1813;52.016;8.714;2023-11-18T07:03:48;-16261.94;;;-139.71;84.31
3598;BME280;1813;52.016;8.714;2023-11-18T07:06:26;-16261.94;;;-139.71;84.31
3598;BME280;1813;52.016;8.714;2023-11-18T07:08:59;-16261.94;;;-139.71;84.38
3598;BME280;1813;52.016;8.714;2023-11-18T07:11:33;-16261.94;;;-139.71;84.52
3598;BME280;1813;52.016;8.714;2023-11-18T07:14:07;-16261.94;;;-139.71;84.68
3598;BME280;1813;52.016;8.714;2023-11-18T07:16:40;-16261.94;;;-139.71;84.84
3598;BME280;1813;52.016;8.714;2023-11-18T07:19:14;-16261.94;;;-139.71;84.97
3598;BME280;1813;52.016;8.714;2023-11-18T07:21:53;-16261.94;;;-139.71;84.88
3598;BME280;1813;52.016;8.714;2023-11-18T07:24:26;-16261.94;;;-139.71;84.89
3598;BME280;1813;52.016;8.714;2023-11-18T07:27:00;-16261.94;;;-139.71;84.91
3598;BME280;1813;52.016;8.714;2023-11-18T07:29:35;-16261.94;;;-139.71;84.85
3598;BME280;1813;52.016;8.714;2023-11-18T07:32:09;-16261.94;;;-139.71;84.90
3598;BME280;1813;52.016;8.714;2023-11-18T07:34:42;-16261.94;;;-139.71;85.06
3598;BME280;1813;52.016;8.714;2023-11-18T07:37:18;-16261.94;;;-139.71;85.01
3598;BME280;1813;52.016;8.714;2023-11-18T07:39:53;-16261.94;;;-139.71;85.12
3598;BME280;1813;52.016;8.714;2023-11-18T07:42:26;-16261.94;;;-139.71;85.01
3598;BME280;1813;52.016;8.714;2023-11-18T07:44:59;-16261.94;;;-139.71;85.20
3598;BME280;1813;52.016;8.714;2023-11-18T07:47:34;-16261.94;;;-139.71;85.16
3598;BME280;1813;52.016;8.714;2023-11-18T07:50:09;-16261.94;;;-139.71;85.17
3598;BME280;1813;52.016;8.714;2023-11-18T07:52:47;-16261.94;;;-139.71;85.18
3598;BME280;1813;52.016;8.714;2023-11-18T07:55:21;-16261.94;;;-139.71;85.27
3598;BME280;1813;52.016;8.714;2023-11-18T07:57:54;-16261.94;;;-139.71;85.29
3598;BME280;1813;52.016;8.714;2023-11-18T08:00:28;-16261.94;;;-139.71;85.29
3598;BME280;1813;52.016;8.714;2023-11-18T08:03:03;-16261.94;;;-139.71;85.21
3598;BME280;1813;52.016;8.714;2023-11-18T08:05:40;-16261.94;;;-139.71;85.31
3598;BME280;1813;52.016;8.714;2023-11-18T08:08:16;-16261.94;;;-139.71;85.16
3598;BME280;1813;52.016;8.714;2023-11-18T08:10:50;-16261.94;;;-139.71;85.24
3598;BME280;1813;52.016;8.714;2023-11-18T08:13:26;-16261.94;;;-139.71;85.42
3598;BME280;1813;52.016;8.714;2023-11-18T08:15:59;-16261.94;;;-139.71;85.58
3598;BME280;1813;52.016;8.714;2023-11-18T08:18:32;-16261.94;;;-139.71;85.69
3598;BME280;1813;52.016;8.714;2023-11-18T08:21:06;-16261.94;;;-139.71;85.59
3598;BME280;1813;52.016;8.714;2023-11-18T08:23:42;-16261.94;;;-139.71;85.44
3598;BME280;1813;52.016;8.714;2023-11-18T08:26:15;-16261.94;;;-139.71;85.21
3598;BME280;1813;52.016;8.714;2023-11-18T08:28:49;-16261.94;;;-139.71;85.06
3598;BME280;1813;52.016;8.714;2023-11-18T08:31:23;-16261.94;;;-139.71;85.09
3598;BME280;1813;52.016;8.714;2023-11-18T08:33:56;-16261.94;;;-139.71;85.02
3598;BME280;1813;52.016;8.714;2023-11-18T08:36:30;-16261.94;;;-139.71;85.07
3598;BME280;1813;52.016;8.714;2023-11-18T08:39:07;-16261.94;;;-139.71;85.23
3598;BME280;1813;52.016;8.714;2023-11-18T08:41:41;-16261.94;;;-139.71;85.51
3598;BME280;1813;52.016;8.714;2023-11-18T08:44:16;-16261.94;;;-139.71;85.35
3598;BME280;1813;52.016;8.714;2023-11-18T08:46:51;-16261.94;;;-139.71;85.48
3598;BME280;1813;52.016;8.714;2023-11-18T08:49:25;-16261.94;;;-139.71;85.51
3598;BME280;1813;52.016;8.714;2023-11-18T08:52:05;-16261.94;;;-139.71;85.60
3598;BME280;1813;52.016;8.714;2023-11-18T08:54:43;-16261.94;;;-139.71;85.78
3598;BME280;1813;52.016;8.714;2023-11-18T08:57:38;-16261.94;;;-139.71;85.69
3598;BME280;1813;52.016;8.714;2023-11-18T09:00:30;-16261.94;;;-139.71;85.44
3598;BME280;1813;52.016;8.714;2023-11-18T09:03:17;-16261.94;;;-139.71;85.33
3598;BME280;1813;52.016;8.714;2023-11-18T09:05:56;-16261.94;;;-139.71;85.27
3598;BME280;1813;52.016;8.714;2023-11-18T09:08:35;-16261.94;;;-139.71;85.11
3598;BME280;1813;52.016;8.714;2023-11-18T09:11:12;-16261.94;;;-139.71;84.86
3598;BME280;1813;52.016;8.714;2023-11-18T09:13:48;-16261.94;;;-139.71;84.61
3598;BME280;1813;52.016;8.714;2023-11-18T09:16:23;-16261.94;;;-139.71;84.14
3598;BME280;1813;52.016;8.714;2023-11-18T09:18:59;-16261.94;;;-139.71;84.03
3598;BME280;1813;52.016;8.714;2023-11-18T09:21:33;-16261.94;;;-139.71;83.97
3598;BME280;1813;52.016;8.714;2023-11-18T09:24:07;-16261.94;;;-139.71;83.75
3598;BME280;1813;52.016;8.714;2023-11-18T09:26:46;-16261.94;;;-139.71;83.68
3598;BME280;1813;52.016;8.714;2023-11-18T09:29:20;-16261.94;;;-139.71;83.96
3598;BME280;1813;52.016;8.714;2023-11-18T09:31:54;-16261.94;;;-139.71;84.06
3598;BME280;1813;52.016;8.714;2023-11-18T09:34:29;-16261.94;;;-139.71;83.76
3598;BME280;1813;52.016;8.714;2023-11-18T09:37:03;-16261.94;;;-139.71;82.57
3598;BME280;1813;52.016;8.714;2023-11-18T09:39:40;-16261.94;;;-139.71;81.45
3598;BME280;1813;52.016;8.714;2023-11-18T09:42:18;-16261.94;;;-139.71;80.58
3598;BME280;1813;52.016;8.714;2023-11-18T09:44:54;-16261.94;;;-139.71;80.18
3598;BME280;1813;52.016;8.714;2023-11-18T09:47:36;-16261.94;;;-139.71;79.44
3598;BME280;1813;52.016;8.714;2023-11-18T09:50:10;-16261.94;;;-139.71;79.03
3598;BME280;1813;52.016;8.714;2023-11-18T09:52:49;-16261.94;;;-139.71;79.02
3598;BME280;1813;52.016;8.714;2023-11-18T09:55:32;-16261.94;;;-139.71;79.23
3598;BME280;1813;52.016;8.714;2023-11-18T09:58:15;-16261.94;;;-139.71;79.30
3598;BME280;1813;52.016;8.714;2023-11-18T10:00:57;-16261.94;;;-139.71;79.31
3598;BME280;1813;52.016;8.714;2023-11-18T10:03:33;-16261.94;;;-139.71;79.19
3598;BME280;1813;52.016;8.714;2023-11-18T10:06:07;-16261.94;;;-139.71;79.37
3598;BME280;1813;52.016;8.714;2023-11-18T10:08:42;-16261.94;;;-139.71;79.16
3598;BME280;1813;52.016;8.714;2023-11-18T10:11:16;-16261.94;;;-139.71;78.79
3598;BME280;1813;52.016;8.714;2023-11-18T10:13:55;-16261.94;;;-139.71;78.49
3598;BME280;1813;52.016;8.714;2023-11-18T10:16:29;-16261.94;;;-139.71;78.46
3598;BME280;1813;52.016;8.714;2023-11-18T10:19:03;-16261.94;;;-139.71;78.44
3598;BME280;1813;52.016;8.714;2023-11-18T10:21:39;-16261.94;;;-139.71;78.07
3598;BME280;1813;52.016;8.714;2023-11-18T10:24:12;-16261.94;;;-139.71;78.18
3598;BME280;1813;52.016;8.714;2023-11-18T10:26:56;-16261.94;;;-139.71;78.14
3598;BME280;1813;52.016;8.714;2023-11-18T10:29:33;-16261.94;;;-139.71;77.87
3598;BME280;1813;52.016;8.714;2023-11-18T10:32:08;-16261.94;;;-139.71;78.07
3598;BME280;1813;52.016;8.714;2023-11-18T10:34:47;-16261.94;;;-139.71;77.75
3598;BME280;1813;52.016;8.714;2023-11-18T10:37:22;-16261.94;;;-139.71;77.61
3598;BME280;1813;52.016;8.714;2023-11-18T10:39:56;-16261.94;;;-139.71;77.46
3598;BME280;1813;52.016;8.714;2023-11-18T10:42:30;-16261.94;;;-139.71;77.32
3598;BME280;1813;52.016;8.714;2023-11-18T10:45:07;-16261.94;;;-139.71;77.32
3598;BME280;1813;52.016;8.714;2023-11-18T10:47:43;-16261.94;;;-139.71;77.27
3598;BME280;1813;52.016;8.714;2023-11-18T10:50:17;-16261.94;;;-139.71;77.42
3598;BME280;1813;52.016;8.714;2023-11-18T10:52:52;-16261.94;;;-139.71;77.39
3598;BME280;1813;52.016;8.714;2023-11-18T10:55:35;-16261.94;;;-139.71;77.64
3598;BME280;1813;52.016;8.714;2023-11-18T10:58:10;-16261.94;;;-139.71;77.85
3598;BME280;1813;52.016;8.714;2023-11-18T11:00:51;-16261.94;;;-139.71;77.47
3598;BME280;1813;52.016;8.714;2023-11-18T11:03:26;-16261.94;;;-139.71;76.98
3598;BME280;1813;52.016;8.714;2023-11-18T11:06:15;-16261.94;;;-139.71;76.63
3598;BME280;1813;52.016;8.714;2023-11-18T11:08:50;-16261.94;;;-139.71;76.39
3598;BME280;1813;52.016;8.714;2023-11-18T11:11:25;-16261.94;;;-139.71;76.20
3598;BME280;1813;52.016;8.714;2023-11-18T11:14:00;-16261.94;;;-139.71;75.94
3598;BME280;1813;52.016;8.714;2023-11-18T11:16:39;-16261.94;;;-139.71;75.70
3598;BME280;1813;52.016;8.714;2023-11-18T11:19:20;-16261.94;;;-139.71;75.66
3598;BME280;1813;52.016;8.714;2023-11-18T11:22:01;-16261.94;;;-139.71;75.44
3598;BME280;1813;52.016;8.714;2023-11-18T11:24:55;-16261.94;;;-139.71;75.44
3598;BME280;1813;52.016;8.714;2023-11-18T11:27:33;-16261.94;;;-139.71;75.58
3598;BME280;1813;52.016;8.714;2023-11-18T11:30:17;-16261.94;;;-139.71;76.07
3598;BME280;1813;52.016;8.714;2023-11-18T11:33:02;-16261.94;;;-139.71;76.48
3598;BME280;1813;52.016;8.714;2023-11-18T11:35:48;-16261.94;;;-139.71;75.95
3598;BME280;1813;52.016;8.714;2023-11-18T11:38:23;-16261.94;;;-139.71;75.64
3598;BME280;1813;52.016;8.714;2023-11-18T11:41:01;-16261.94;;;-139.71;75.38
3598;BME280;1813;52.016;8.714;2023-11-18T11:43:35;-16261.94;;;-139.71;75.37
3598;BME280;1813;52.016;8.714;2023-11-18T11:46:11;-16261.94;;;-139.71;75.21
3598;BME280;1813;52.016;8.714;2023-11-18T11:48:47;-16261.94;;;-139.71;74.83
3598;BME280;1813;52.016;8.714;2023-11-18T11:51:27;-16261.94;;;-139.71;74.74
3598;BME280;1813;52.016;8.714;2023-11-18T11:54:12;-16261.94;;;-139.71;74.74
3598;BME280;1813;52.016;8.714;2023-11-18T11:56:50;-16261.94;;;-139.71;74.94
3598;BME280;1813;52.016;8.714;2023-11-18T11:59:54;-16261.94;;;-139.71;74.97
3598;BME280;1813;52.016;8.714;2023-11-18T12:02:28;-16261.94;;;-139.71;74.72
3598;BME280;1813;52.016;8.714;2023-11-18T12:05:08;-16261.94;;;-139.71;74.31
3598;BME280;1813;52.016;8.714;2023-11-18T12:07:49;-16261.94;;;-139.71;74.03
3598;BME280;1813;52.016;8.714;2023-11-18T12:10:26;-16261.94;;;-139.71;74.35
3598;BME280;1813;52.016;8.714;2023-11-18T12:13:08;-16261.94;;;-139.71;74.68
3598;BME280;1813;52.016;8.714;2023-11-18T12:15:50;-16261.94;;;-139.71;75.22
3598;BME280;1813;52.016;8.714;2023-11-18T12:18:27;-16261.94;;;-139.71;75.33
3598;BME280;1813;52.016;8.714;2023-11-18T12:21:05;-16261.94;;;-139.71;75.60
3598;BME280;1813;52.016;8.714;2023-11-18T12:24:14;-16261.94;;;-139.71;75.41
3598;BME280;1813;52.016;8.714;2023-11-18T12:26:49;-16261.94;;;-139.71;75.59
3598;BME280;1813;52.016;8.714;2023-11-18T12:29:30;-16261.94;;;-139.71;75.44
3598;BME280;1813;52.016;8.714;2023-11-18T12:32:05;-16261.94;;;-139.71;75.71
3598;BME280;1813;52.016;8.714;2023-11-18T12:34:52;-16261.94;;;-139.71;75.70
3598;BME280;1813;52.016;8.714;2023-11-18T12:37:51;-16261.94;;;-139.71;75.88
3598;BME280;1813;52.016;8.714;2023-11-18T12:43:48;-16261.94;;;-139.71;76.28
3598;BME280;1813;52.016;8.714;2023-11-18T12:46:47;-16261.94;;;-139.71;76.52
3598;BME280;1813;52.016;8.714;2023-11-18T12:49:24;-16261.94;;;-139.71;76.79
3598;BME280;1813;52.016;8.714;2023-11-18T12:51:58;-16261.94;;;-139.71;76.92
3598;BME280;1813;52.016;8.714;2023-11-18T12:54:41;-16261.94;;;-139.71;76.88
3598;BME280;1813;52.016;8.714;2023-11-18T12:57:14;-16261.94;;;-139.71;77.25
3598;BME280;1813;52.016;8.714;2023-11-18T12:59:48;-16261.94;;;-139.71;77.59
3598;BME280;1813;52.016;8.714;2023-11-18T13:02:22;-16261.94;;;-139.71;77.73
3598;BME280;1813;52.016;8.714;2023-11-18T13:04:55;-16261.94;;;-139.71;77.66
3598;BME280;1813;52.016;8.714;2023-11-18T13:07:29;-16261.94;;;-139.71;77.69
3598;BME280;1813;52.016;8.714;2023-11-18T13:10:07;-16261.94;;;-139.71;77.72
3598;BME280;1813;52.016;8.714;2023-11-18T13:12:45;-16261.94;;;-139.71;77.84
3598;BME280;1813;52.016;8.714;2023-11-18T13:15:20;-16261.94;;;-139.71;77.91
3598;BME280;1813;52.016;8.714;2023-11-18T13:17:59;-16261.94;;;-139.71;78.07
3598;BME280;1813;52.016;8.714;2023-11-18T13:20:33;-16261.94;;;-139.71;78.28
3598;BME280;1813;52.016;8.714;2023-11-18T13:23:08;-16261.94;;;-139.71;78.58
3598;BME280;1813;52.016;8.714;2023-11-18T13:25:46;-16261.94;;;-139.71;78.58
3598;BME280;1813;52.016;8.714;2023-11-18T13:28:22;-16261.94;;;-139.71;78.64
3598;BME280;1813;52.016;8.714;2023-11-18T13:30:56;-16261.94;;;-139.71;78.63
3598;BME280;1813;52.016;8.714;2023-11-18T13:33:29;-16261.94;;;-139.71;78.34
3598;BME280;1813;52.016;8.714;2023-11-18T13:36:03;-16261.94;;;-139.71;78.14
3598;BME280;1813;52.016;8.714;2023-11-18T13:38:41;-16261.94;;;-139.71;77.92
3598;BME280;1813;52.016;8.714;2023-11-18T13:41:32;-16261.94;;;-139.71;77.67